Claremont, California
Current Conditions -  °F | °C
As of 3:53 AM on Monday 20 Oct 2014 (Local Time) from KONT Reporting Station
Clear Clear  
Wind Chill: 62°   Ceiling: Unl
Heat Index: 62°   Visibility: 8mi
Dew Point: 58°   Wind: 0mph
Humidity: 86%   Direction: NA
Pressure: 29.89"   Gusts: NA
Location:  34.1°N, 117.71°W
Report Text: KONT 201053Z 00000KT 8SM CLR 17/14 A2989 RMK AO2 SLP110 T01670144
Loading
Personal Weather Stations






























Interactive Weather Map
Tropical Storm Tracking
New forecast layout! Learn more

10-Day Weather Forecast

Advertisements
Track Severe Weather on mobile